Hovedside
METAR-TAF:

METAR-TAF

Lufthavner :

Teheran, Iran

breddegrad: 35-41N, lengdegrad: 051-21E, høyde over havet: 1204 m

Gjeldene værobservasjon

Denne rapporten ble laget for 22 minutter siden, klokken 04:30 UTC
Vind 8 kt fra Vest-sørvest
Temperatur 28°C
Luftfuktighet 25%
Trykk 1015 hPa
Sikt: 8000 m

METAR: OIII 210430Z 25008KT 8000 NSC 28/06 Q1015 A2997

Tid: 09:22 (04:52 UTC)

Varsel

Denne rapporten ble laget for 5 timer og 52 minutter siden, klokken 23:00 UTC
Varsel gyldig fra 21. klokken 00 UTC til 22. klokken 06 UTC
Vind 8 kt fra Nordvest
Sikt 10 km eller mer
ingen skyer under 1500 m og ingen bygeskyer
Midlertidig
fra 21. klokken 08 UTC til 21. klokken 14 UTC
Vind 10 kt fra Sørøst

TAF: OIII 202300Z 2100/2206 31004MPS CAVOK TEMPO 2108/2114 13005MPS

Værobservasjoner og værvarsel for over 4000 flyplasser (METAR- og TAF-rapporter).

Tilgjengelige stasjoner er representert av de røde og gule prikkene på kartet.

Hold musepekeren over prikken for å se navnet på stasjonen.

Klikk så for å se værobservasjoner og -varsler.

For å forandre kartet kan du klikke på den grønne knappen med svart kryss for å zoome inn, på den grønne knappen med strek for å zoome ut, eller på de grønne pilene for å se tilstøtende kart.


METAR-TAF: